Time;durP1;ratioP1;P1;durP2;ratioP2;P2;SDS_P1;SDS_P2;PMS_P1;PMS_P2;Temp;Humidity;BMP_temperature;BMP_pressure;BME280_temperature;BME280_humidity;BME280_pressure;Samples;Min_cycle;Max_cycle;Signal;HPM_P1;HPM_P2
2023/07/17 00:00:20;;;;;;;6.53;3.22;;;;;;;16.13;100.00;100733.53;689362;28;922;-64
2023/07/17 00:00:40;;;;;;;5.93;3.23;;;;;;;16.14;100.00;100734.41;690876;28;868;-64
2023/07/17 00:01:02;;;;;;;6.60;3.00;;;;;;;16.19;100.00;100734.28;690340;28;4331;-64
2023/07/17 00:01:22;;;;;;;7.25;3.28;;;;;;;16.26;100.00;100734.06;689939;28;964;-64
2023/07/17 00:01:42;;;;;;;7.22;3.28;;;;;;;16.28;100.00;100729.63;691105;28;975;-64
2023/07/17 00:02:03;;;;;;;8.00;3.03;;;;;;;16.30;100.00;100735.72;690019;28;1543;-64
2023/07/17 00:02:24;;;;;;;7.32;3.17;;;;;;;16.30;100.00;100741.00;690307;28;844;-64
2023/07/17 00:02:44;;;;;;;6.43;3.17;;;;;;;16.30;100.00;100737.50;690943;28;925;-64
2023/07/17 00:03:04;;;;;;;6.43;3.00;;;;;;;16.30;100.00;100737.50;689567;28;1457;-64
2023/07/17 00:03:27;;;;;;;5.53;2.90;;;;;;;16.29;100.00;100744.53;690398;28;881;-64
2023/07/17 00:03:47;;;;;;;5.43;2.88;;;;;;;16.33;100.00;100746.16;690269;28;4326;-64
2023/07/17 00:04:08;;;;;;;6.20;2.97;;;;;;;16.37;100.00;100740.84;689855;28;1605;-63
2023/07/17 00:04:29;;;;;;;5.05;3.08;;;;;;;16.39;100.00;100746.91;690149;28;1015;-65
2023/07/17 00:04:50;;;;;;;5.63;3.05;;;;;;;16.40;100.00;100749.50;690974;28;976;-64
2023/07/17 00:05:11;;;;;;;5.35;3.15;;;;;;;16.41;100.00;100750.41;686869;28;1733;-64
2023/07/17 00:05:31;;;;;;;6.30;3.25;;;;;;;16.40;100.00;100752.16;687578;28;878;-64
2023/07/17 00:05:51;;;;;;;6.63;3.20;;;;;;;16.43;100.00;100746.78;688234;28;865;-64
2023/07/17 00:06:12;;;;;;;6.67;3.20;;;;;;;16.44;100.00;100753.78;687654;28;1421;-64
2023/07/17 00:06:32;;;;;;;6.63;3.20;;;;;;;16.47;100.00;100758.13;688697;28;917;-64
2023/07/17 00:06:52;;;;;;;6.70;3.20;;;;;;;16.48;100.00;100754.59;688531;28;4559;-64
2023/07/17 00:07:13;;;;;;;8.50;3.50;;;;;;;16.48;100.00;100760.72;690070;28;1673;-64
2023/07/17 00:07:33;;;;;;;6.77;2.87;;;;;;;16.47;100.00;100764.25;690648;28;884;-64
2023/07/17 00:07:54;;;;;;;5.95;2.90;;;;;;;16.46;100.00;100764.31;691224;28;844;-64
2023/07/17 00:08:14;;;;;;;5.33;2.80;;;;;;;16.47;100.00;100760.75;690113;28;1412;-64
2023/07/17 00:08:35;;;;;;;5.60;2.90;;;;;;;16.44;100.00;100763.50;690357;28;983;-64
2023/07/17 00:08:56;;;;;;;6.47;3.00;;;;;;;16.45;100.00;100759.97;691032;28;936;-64
2023/07/17 00:09:16;;;;;;;6.65;3.22;;;;;;;16.46;100.00;100767.81;689475;28;1070;-64
2023/07/17 00:09:37;;;;;;;5.80;3.08;;;;;;;16.46;100.00;100761.66;690314;28;936;-64
2023/07/17 00:09:57;;;;;;;6.80;3.13;;;;;;;16.47;100.00;100758.97;690041;28;4613;-64
2023/07/17 00:10:17;;;;;;;6.73;3.10;;;;;;;16.47;100.00;100758.97;686764;28;1513;-63
2023/07/17 00:10:40;;;;;;;6.55;3.58;;;;;;;16.47;100.00;100766.03;687928;28;897;-64
2023/07/17 00:11:00;;;;;;;6.75;3.30;;;;;;;16.47;100.00;100766.03;688224;28;964;-63
2023/07/17 00:11:21;;;;;;;5.90;3.07;;;;;;;16.46;100.00;100772.22;690104;28;1415;-64
2023/07/17 00:11:41;;;;;;;6.37;3.20;;;;;;;16.47;100.00;100764.25;690738;28;806;-64
2023/07/17 00:12:03;;;;;;;5.95;3.05;;;;;;;16.48;100.00;100771.28;689522;28;1504;-63
2023/07/17 00:12:23;;;;;;;6.07;3.20;;;;;;;16.47;100.00;100760.75;690534;28;996;-63
2023/07/17 00:12:43;;;;;;;6.15;3.30;;;;;;;16.47;100.00;100764.25;690029;28;4451;-63
2023/07/17 00:13:04;;;;;;;7.93;3.03;;;;;;;16.47;100.00;100763.41;689340;28;1536;-64
2023/07/17 00:13:25;;;;;;;11.68;3.30;;;;;;;16.47;100.00;100771.31;690956;28;908;-64
2023/07/17 00:13:45;;;;;;;6.72;3.30;;;;;;;16.47;100.00;100768.69;690442;28;1132;-63
2023/07/17 00:14:06;;;;;;;6.63;3.20;;;;;;;16.50;100.00;100771.22;689712;28;1556;-63
2023/07/17 00:14:26;;;;;;;6.53;3.10;;;;;;;16.51;100.00;100771.19;691262;28;881;-63
2023/07/17 00:14:47;;;;;;;5.83;2.90;;;;;;;16.52;100.00;100772.91;691093;28;849;-63
2023/07/17 00:15:08;;;;;;;7.38;3.10;;;;;;;16.51;100.00;100765.91;689298;28;1519;-64
2023/07/17 00:15:28;;;;;;;9.23;3.40;;;;;;;16.51;100.00;100770.34;691078;28;1027;-64
2023/07/17 00:15:49;;;;;;;6.97;3.27;;;;;;;16.50;100.00;100772.13;690590;28;4503;-64
2023/07/17 00:16:09;;;;;;;6.70;2.95;;;;;;;16.50;100.00;100771.22;689250;28;1524;-64
2023/07/17 00:16:32;;;;;;;5.93;2.97;;;;;;;16.50;100.00;100773.88;689887;28;3269;-64
2023/07/17 00:16:52;;;;;;;6.97;2.90;;;;;;;16.50;100.00;100771.22;690843;28;908;-64
2023/07/17 00:17:15;;;;;;;7.27;3.27;;;;;;;16.49;100.00;100777.41;688952;28;1461;-65
2023/07/17 00:17:36;;;;;;;6.22;3.08;;;;;;;16.48;100.00;100771.28;690569;28;892;-64
2023/07/17 00:17:56;;;;;;;6.13;3.22;;;;;;;16.49;100.00;100772.13;690742;28;837;-64
2023/07/17 00:18:17;;;;;;;6.50;3.37;;;;;;;16.50;100.00;100771.22;689572;28;1364;-64
2023/07/17 00:18:38;;;;;;;6.72;3.20;;;;;;;16.50;100.00;100768.59;691161;28;1012;-64
2023/07/17 00:18:58;;;;;;;6.93;2.92;;;;;;;16.50;100.00;100773.88;690533;28;4645;-64
2023/07/17 00:19:18;;;;;;;7.60;3.40;;;;;;;16.50;100.00;100776.50;688897;28;1501;-64
2023/07/17 00:19:39;;;;;;;5.43;3.10;;;;;;;16.53;100.00;100779.06;691105;28;2426;-64
2023/07/17 00:20:00;;;;;;;6.30;3.10;;;;;;;16.55;100.00;100771.97;691114;28;841;-64
2023/07/17 00:20:20;;;;;;;6.35;3.20;;;;;;;16.54;100.00;100774.66;689634;28;1464;-64
2023/07/17 00:20:41;;;;;;;6.35;3.13;;;;;;;16.50;100.00;100780.03;690765;28;943;-64
2023/07/17 00:21:02;;;;;;;6.30;3.00;;;;;;;16.51;100.00;100780.88;690741;28;1015;-64
2023/07/17 00:21:22;;;;;;;5.82;2.90;;;;;;;16.51;100.00;100776.47;689991;28;850;-63
2023/07/17 00:21:42;;;;;;;5.80;3.00;;;;;;;16.51;100.00;100779.09;690470;28;4578;-63
2023/07/17 00:22:03;;;;;;;5.90;3.20;;;;;;;16.51;100.00;100778.25;689544;28;1515;-63
2023/07/17 00:22:24;;;;;;;6.60;3.23;;;;;;;16.50;100.00;100779.16;689982;28;1114;-63
2023/07/17 00:22:45;;;;;;;6.72;3.50;;;;;;;16.48;100.00;100773.06;689987;28;987;-63
2023/07/17 00:23:05;;;;;;;6.57;3.50;;;;;;;16.46;100.00;100783.66;690044;28;1641;-63
2023/07/17 00:23:25;;;;;;;5.70;3.13;;;;;;;16.49;100.00;100780.03;690099;28;963;-63
2023/07/17 00:23:47;;;;;;;5.63;3.22;;;;;;;16.54;100.00;100767.59;691029;28;861;-64
2023/07/17 00:24:07;;;;;;;6.53;3.33;;;;;;;16.59;100.00;100768.34;689269;28;1575;-64
2023/07/17 00:24:28;;;;;;;5.50;3.15;;;;;;;16.63;100.00;100770.00;690388;28;1221;-64
2023/07/17 00:24:49;;;;;;;5.73;3.23;;;;;;;16.60;100.00;100772.72;690191;28;4533;-64
2023/07/17 00:25:09;;;;;;;5.88;3.20;;;;;;;16.62;100.00;100773.53;689696;28;1505;-64
2023/07/17 00:25:30;;;;;;;6.63;3.33;;;;;;;16.57;100.00;100767.50;689857;28;1414;-64
2023/07/17 00:25:50;;;;;;;6.70;3.40;;;;;;;16.55;100.00;100769.34;690922;28;1125;-64
2023/07/17 00:26:11;;;;;;;7.68;3.45;;;;;;;16.54;100.00;100770.25;689541;28;1452;-64
2023/07/17 00:26:31;;;;;;;6.13;3.20;;;;;;;16.52;100.00;100766.78;690363;28;798;-63
2023/07/17 00:26:52;;;;;;;6.87;3.20;;;;;;;16.51;100.00;100770.34;691048;28;782;-64
2023/07/17 00:27:12;;;;;;;6.73;3.17;;;;;;;16.52;100.00;100761.50;688604;28;1572;-64
2023/07/17 00:27:36;;;;;;;6.20;3.22;;;;;;;16.50;100.00;100765.94;689743;28;1038;-63
2023/07/17 00:27:57;;;;;;;8.35;3.72;;;;;;;16.49;100.00;100772.13;690457;28;4302;-63
2023/07/17 00:28:17;;;;;;;6.37;3.37;;;;;;;16.48;100.00;100773.06;690028;28;1389;-63
2023/07/17 00:28:38;;;;;;;6.30;3.53;;;;;;;16.47;100.00;100766.91;688256;28;1358;-64
2023/07/17 00:29:28;;;;;;;5.80;3.40;;;;;;;16.48;100.00;100762.50;690595;28;1003;-64
2023/07/17 00:29:49;;;;;;;6.63;3.30;;;;;;;16.46;100.00;100765.19;683363;28;1350;-63
2023/07/17 00:30:09;;;;;;;6.83;3.23;;;;;;;16.46;100.00;100766.94;684264;28;1509;-64
2023/07/17 00:30:29;;;;;;;6.57;3.28;;;;;;;16.45;100.00;100762.59;685584;28;960;-64
2023/07/17 00:30:50;;;;;;;6.97;3.55;;;;;;;16.43;100.00;100764.41;683895;28;4402;-64
2023/07/17 00:31:11;;;;;;;6.70;3.37;;;;;;;16.41;100.00;100756.53;684383;28;1465;-63
2023/07/17 00:31:31;;;;;;;6.65;3.28;;;;;;;16.42;100.00;100767.94;685170;28;865;-63
2023/07/17 00:31:52;;;;;;;5.80;3.17;;;;;;;16.42;100.00;100762.66;684927;28;1185;-64
2023/07/17 00:32:13;;;;;;;5.75;3.20;;;;;;;16.44;100.00;100759.06;682592;28;1556;-64
2023/07/17 00:32:34;;;;;;;6.88;3.30;;;;;;;16.42;100.00;100760.00;686839;28;1059;-64
2023/07/17 00:32:54;;;;;;;6.70;3.22;;;;;;;16.41;100.00;100753.88;687965;28;909;-64
2023/07/17 00:33:14;;;;;;;7.53;3.27;;;;;;;16.41;100.00;100766.22;687009;28;1535;-64
2023/07/17 00:33:35;;;;;;;6.60;3.20;;;;;;;16.40;100.00;100764.50;688042;28;1137;-64
2023/07/17 00:33:55;;;;;;;7.60;3.40;;;;;;;16.41;100.00;100760.94;686951;28;4368;-64
2023/07/17 00:34:17;;;;;;;6.93;3.20;;;;;;;16.40;100.00;100772.41;684285;28;1565;-64
2023/07/17 00:34:39;;;;;;;5.60;3.15;;;;;;;16.41;100.00;100764.44;685127;28;1622;-64
2023/07/17 00:35:00;;;;;;;5.47;3.10;;;;;;;16.41;100.00;100763.59;685591;28;888;-63
2023/07/17 00:35:20;;;;;;;5.85;3.30;;;;;;;16.38;100.00;100759.25;687877;28;1525;-63
2023/07/17 00:35:41;;;;;;;6.03;3.00;;;;;;;16.36;100.00;100766.34;686233;28;1835;-63
2023/07/17 00:36:02;;;;;;;6.57;3.17;;;;;;;16.34;100.00;100774.28;686415;28;1966;-63
2023/07/17 00:36:22;;;;;;;7.35;3.30;;;;;;;16.34;100.00;100766.38;687552;28;1596;-64
2023/07/17 00:36:42;;;;;;;6.30;3.00;;;;;;;16.33;100.00;100771.69;689919;28;4552;-63
2023/07/17 00:37:03;;;;;;;7.05;3.28;;;;;;;16.35;100.00;100764.59;687756;28;1483;-63
2023/07/17 00:37:23;;;;;;;7.17;3.67;;;;;;;16.36;100.00;100765.47;686921;28;1328;-64
2023/07/17 00:37:45;;;;;;;7.40;3.55;;;;;;;16.38;100.00;100761.91;689346;28;1251;-64
2023/07/17 00:38:06;;;;;;;6.75;3.17;;;;;;;16.39;100.00;100760.09;683336;28;1464;-63
2023/07/17 00:38:27;;;;;;;6.55;3.00;;;;;;;16.37;100.00;100767.22;681131;28;1205;-63
2023/07/17 00:38:47;;;;;;;6.00;3.10;;;;;;;16.34;100.00;100763.75;680982;29;5388;-64
2023/07/17 00:39:08;;;;;;;6.85;3.08;;;;;;;16.37;100.00;100772.50;681317;28;1452;-64
2023/07/17 00:39:28;;;;;;;5.73;3.00;;;;;;;16.36;100.00;100768.13;682463;28;1915;-63
2023/07/17 00:39:51;;;;;;;6.55;3.10;;;;;;;16.34;100.00;100763.75;682886;28;4458;-63
2023/07/17 00:40:12;;;;;;;8.20;3.38;;;;;;;16.48;100.00;100760.72;686807;28;1573;-63
2023/07/17 00:40:34;;;;;;;7.07;2.92;;;;;;;16.52;100.00;100765.00;690806;28;1052;-64
2023/07/17 00:40:54;;;;;;;7.78;2.95;;;;;;;16.49;100.00;100767.75;687939;28;1293;-64
2023/07/17 00:41:15;;;;;;;6.78;3.10;;;;;;;16.46;100.00;100761.66;686690;28;1563;-64
2023/07/17 00:41:35;;;;;;;6.53;3.17;;;;;;;16.61;100.00;100763.88;687829;28;1343;-63
2023/07/17 00:41:57;;;;;;;7.05;3.45;;;;;;;16.73;100.00;100760.03;688526;28;841;-64
2023/07/17 00:42:17;;;;;;;7.25;3.55;;;;;;;16.67;100.00;100769.00;689234;28;1507;-64
2023/07/17 00:42:38;;;;;;;6.67;3.23;;;;;;;16.65;100.00;100757.59;688092;28;1412;-64
2023/07/17 00:43:00;;;;;;;5.53;3.10;;;;;;;16.62;100.00;100768.25;690115;28;4378;-64
2023/07/17 00:43:20;;;;;;;8.02;3.17;;;;;;;16.58;100.00;100763.97;689066;28;1551;-63
2023/07/17 00:43:41;;;;;;;7.90;3.10;;;;;;;16.53;100.00;100763.22;690574;28;960;-63
2023/07/17 00:44:01;;;;;;;5.83;3.00;;;;;;;16.51;100.00;100767.69;690572;28;896;-64
2023/07/17 00:44:21;;;;;;;6.15;2.85;;;;;;;16.51;100.00;100767.69;685772;28;1497;-64
2023/07/17 00:44:42;;;;;;;7.10;3.20;;;;;;;16.49;100.00;100766.84;686909;28;852;-64
2023/07/17 00:45:02;;;;;;;6.53;3.20;;;;;;;16.48;100.00;100770.41;684173;28;1359;-65
2023/07/17 00:45:24;;;;;;;6.32;3.10;;;;;;;16.47;100.00;100763.41;683528;28;1564;-64
2023/07/17 00:45:45;;;;;;;6.38;3.15;;;;;;;16.48;100.00;100765.16;684741;28;4496;-64
2023/07/17 00:46:06;;;;;;;7.43;3.40;;;;;;;16.47;100.00;100768.69;683946;28;1535;-65
2023/07/17 00:46:27;;;;;;;7.32;3.30;;;;;;;16.47;100.00;100773.97;684553;28;1215;-64
2023/07/17 00:46:52;;;;;;;6.55;3.00;;;;;;;16.46;100.00;100772.22;681611;29;1245;-64
2023/07/17 00:47:12;;;;;;;6.60;3.00;;;;;;;16.48;100.00;100776.56;681838;28;1588;-64
2023/07/17 00:47:33;;;;;;;6.00;3.27;;;;;;;16.48;100.00;100779.19;682747;28;865;-64
2023/07/17 00:47:54;;;;;;;6.28;3.15;;;;;;;16.49;100.00;100780.94;685634;28;1190;-63
2023/07/17 00:48:14;;;;;;;7.35;3.17;;;;;;;16.51;100.00;100783.53;686499;28;1433;-63
2023/07/17 00:48:35;;;;;;;6.43;3.13;;;;;;;16.51;100.00;100780.88;687925;28;963;-63
2023/07/17 00:48:57;;;;;;;7.88;3.72;;;;;;;16.49;100.00;100788.84;687591;28;4311;-63
2023/07/17 00:49:20;;;;;;;7.53;3.40;;;;;;;16.51;100.00;100780.88;687173;28;1668;-63
2023/07/17 00:49:40;;;;;;;6.85;3.00;;;;;;;16.54;100.00;100798.41;687993;28;1310;-64
2023/07/17 00:50:03;;;;;;;6.15;3.17;;;;;;;16.53;100.00;100784.34;687982;28;860;-63
2023/07/17 00:50:27;;;;;;;6.60;3.03;;;;;;;16.51;100.00;100796.72;684277;28;2214;-64
2023/07/17 00:50:51;;;;;;;6.22;3.10;;;;;;;16.51;100.00;100794.94;685582;28;959;-63
2023/07/17 00:51:11;;;;;;;5.97;3.10;;;;;;;16.55;100.00;100787.81;685681;28;1484;-63
2023/07/17 00:51:32;;;;;;;7.00;3.15;;;;;;;16.55;100.00;100790.44;688041;28;897;-64
2023/07/17 00:51:54;;;;;;;6.15;3.03;;;;;;;16.55;100.00;100789.59;687106;28;4562;-62
2023/07/17 00:52:15;;;;;;;7.05;3.28;;;;;;;16.60;100.00;100791.19;684002;28;1485;-64
2023/07/17 00:52:39;;;;;;;6.60;3.35;;;;;;;16.68;100.00;100794.50;686019;28;878;-64
2023/07/17 00:53:01;;;;;;;7.05;3.08;;;;;;;16.68;100.00;100783.03;688381;28;1193;-63
2023/07/17 00:53:21;;;;;;;8.43;3.00;;;;;;;16.69;100.00;100790.91;689609;28;1579;-63
2023/07/17 00:53:43;;;;;;;6.85;3.15;;;;;;;16.80;100.00;100797.69;690765;28;820;-64
2023/07/17 00:54:05;;;;;;;6.80;3.00;;;;;;;16.85;100.00;100791.34;690043;28;964;-64
2023/07/17 00:54:27;;;;;;;6.55;3.08;;;;;;;16.88;100.00;100795.69;689343;28;870;-64
2023/07/17 00:54:49;;;;;;;6.10;3.08;;;;;;;16.83;100.00;100793.16;689971;28;4592;-64
2023/07/17 00:55:11;;;;;;;6.55;3.17;;;;;;;16.88;100.00;100786.88;686850;28;1522;-64
2023/07/17 00:55:34;;;;;;;6.25;3.00;;;;;;;16.95;100.00;100789.34;685999;28;1224;-64
2023/07/17 00:55:54;;;;;;;5.80;3.05;;;;;;;16.95;100.00;100793.78;682622;28;2062;-63
2023/07/17 00:56:15;;;;;;;6.40;3.00;;;;;;;16.89;100.00;100783.38;683209;28;1686;-63
2023/07/17 00:56:35;;;;;;;6.00;3.30;;;;;;;16.87;100.00;100783.38;682693;28;889;-63
2023/07/17 00:56:59;;;;;;;6.40;3.17;;;;;;;16.85;100.00;100785.22;681593;28;1160;-64
2023/07/17 00:57:19;;;;;;;5.50;3.15;;;;;;;16.80;100.00;100787.13;683338;28;1521;-63
2023/07/17 00:57:41;;;;;;;5.47;3.00;;;;;;;16.79;100.00;100794.16;685742;28;905;-64
2023/07/17 00:58:02;;;;;;;5.10;2.90;;;;;;;16.78;100.00;100781.00;686989;28;4692;-64
2023/07/17 00:58:23;;;;;;;6.28;3.17;;;;;;;16.77;100.00;100788.06;687196;28;1703;-63
2023/07/17 00:58:43;;;;;;;7.10;2.97;;;;;;;16.77;100.00;100793.34;687733;28;916;-63
2023/07/17 00:59:04;;;;;;;7.70;3.43;;;;;;;16.75;100.00;100789.03;687097;28;1472;-64
2023/07/17 00:59:25;;;;;;;6.55;2.92;;;;;;;16.73;100.00;100793.50;690731;28;1978;-64
2023/07/17 00:59:46;;;;;;;5.25;2.95;;;;;;;16.75;100.00;100799.56;687860;28;2024;-64
2023/07/17 01:00:08;;;;;;;6.25;3.28;;;;;;;16.74;100.00;100792.56;686846;28;1489;-64
2023/07/17 01:00:31;;;;;;;6.30;3.30;;;;;;;16.75;100.00;100795.16;690679;28;840;-64
2023/07/17 01:00:51;;;;;;;6.35;2.78;;;;;;;16.78;100.00;100792.44;684561;28;4334;-64
2023/07/17 01:01:12;;;;;;;7.53;2.90;;;;;;;16.84;100.00;100796.69;686560;28;1499;-64
2023/07/17 01:01:33;;;;;;;5.57;2.70;;;;;;;16.92;100.00;100789.44;686179;28;1286;-64
2023/07/17 01:01:54;;;;;;;6.28;2.90;;;;;;;17.00;100.00;100794.47;687900;28;1432;-63
2023/07/17 01:02:14;;;;;;;8.13;2.95;;;;;;;16.98;100.00;100789.25;686446;28;1576;-65
2023/07/17 01:02:37;;;;;;;7.03;2.70;;;;;;;17.09;100.00;100791.56;685138;28;873;-64
2023/07/17 01:02:58;;;;;;;6.30;2.63;;;;;;;17.10;100.00;100795.97;685729;28;973;-64
2023/07/17 01:03:19;;;;;;;6.53;2.65;;;;;;;17.10;100.00;100792.44;686781;28;1393;-64
2023/07/17 01:03:41;;;;;;;6.30;2.83;;;;;;;17.09;100.00;100802.16;684332;28;1006;-64
2023/07/17 01:04:05;;;;;;;6.60;3.10;;;;;;;17.17;100.00;100796.66;686284;28;4393;-63
2023/07/17 01:04:25;;;;;;;6.30;2.97;;;;;;;17.15;100.00;100801.94;686400;28;893;-64
2023/07/17 01:04:47;;;;;;;6.63;2.87;;;;;;;17.11;100.00;100797.69;690710;28;996;-64
2023/07/17 01:05:08;;;;;;;6.93;3.00;;;;;;;17.09;100.00;100798.66;683719;28;1628;-66
2023/07/17 01:05:29;;;;;;;5.88;2.80;;;;;;;17.14;100.00;100794.06;685579;28;1178;-65
2023/07/17 01:05:49;;;;;;;5.63;2.67;;;;;;;17.14;100.00;100802.00;685561;28;869;-65
2023/07/17 01:06:10;;;;;;;7.82;3.05;;;;;;;17.11;100.00;100800.34;681780;28;1525;-64
2023/07/17 01:06:31;;;;;;;7.00;2.97;;;;;;;17.10;100.00;100789.78;681896;29;862;-64
2023/07/17 01:06:51;;;;;;;5.50;2.83;;;;;;;17.11;100.00;100800.34;682660;28;4514;-64
2023/07/17 01:07:13;;;;;;;5.40;2.70;;;;;;;17.18;100.00;100801.00;686818;28;1457;-64
2023/07/17 01:07:34;;;;;;;6.45;2.55;;;;;;;17.22;100.00;100799.13;688055;28;971;-61
2023/07/17 01:07:57;;;;;;;6.07;2.65;;;;;;;17.20;100.00;100801.81;690067;28;882;-63
2023/07/17 01:08:18;;;;;;;5.50;2.70;;;;;;;17.19;100.00;100802.72;689143;28;1550;-66
2023/07/17 01:08:38;;;;;;;5.00;3.10;;;;;;;17.19;100.00;100800.09;690097;28;1090;-64
2023/07/17 01:08:59;;;;;;;4.75;2.80;;;;;;;17.17;100.00;100807.22;690111;28;872;-64
2023/07/17 01:09:21;;;;;;;5.22;2.63;;;;;;;17.17;100.00;100809.84;688195;28;1520;-65
2023/07/17 01:09:44;;;;;;;5.53;2.60;;;;;;;17.14;100.00;100808.16;688255;28;4576;-64
2023/07/17 01:10:06;;;;;;;5.85;2.40;;;;;;;17.16;100.00;100816.03;689484;28;1459;-64
2023/07/17 01:10:26;;;;;;;5.57;2.70;;;;;;;17.16;100.00;100816.88;689323;28;1462;-64
2023/07/17 01:10:47;;;;;;;5.97;2.90;;;;;;;17.17;100.00;100818.63;689216;28;769;-64
2023/07/17 01:11:08;;;;;;;5.03;2.70;;;;;;;17.23;100.00;100816.72;686635;28;1563;-64
2023/07/17 01:11:30;;;;;;;4.90;2.65;;;;;;;17.26;100.00;100812.19;685260;28;1355;-64
2023/07/17 01:11:51;;;;;;;4.97;2.60;;;;;;;17.28;100.00;100815.66;684846;28;869;-64
2023/07/17 01:12:12;;;;;;;5.38;2.47;;;;;;;17.25;100.00;100821.06;685358;28;1529;-64
2023/07/17 01:12:35;;;;;;;5.28;2.63;;;;;;;17.23;100.00;100819.38;687084;28;3127;-64
2023/07/17 01:12:55;;;;;;;4.82;2.50;;;;;;;17.21;100.00;100824.69;687783;28;4574;-64
2023/07/17 01:13:17;;;;;;;5.55;2.60;;;;;;;17.18;100.00;100819.47;687188;28;1458;-64
2023/07/17 01:13:45;;;;;;;5.07;2.60;;;;;;;17.16;100.00;100826.59;688552;28;817;-64
2023/07/17 01:14:15;;;;;;;5.80;2.58;;;;;;;17.13;100.00;100824.91;688587;28;1523;-64
2023/07/17 01:14:35;;;;;;;6.40;2.60;;;;;;;17.23;100.00;100830.78;685804;28;909;-64
2023/07/17 01:14:56;;;;;;;7.27;2.67;;;;;;;17.24;100.00;100826.34;687345;28;857;-64
2023/07/17 01:15:16;;;;;;;7.20;2.50;;;;;;;17.23;100.00;100829.94;689237;28;1574;-64
2023/07/17 01:15:36;;;;;;;6.60;2.40;;;;;;;17.20;100.00;100838.81;692418;28;1272;-63
2023/07/17 01:15:57;;;;;;;5.87;2.80;;;;;;;17.16;100.00;100831.88;689803;28;4667;-64
2023/07/17 01:16:17;;;;;;;4.85;2.50;;;;;;;17.19;100.00;100839.72;689516;28;1569;-64
2023/07/17 01:16:38;;;;;;;5.40;2.53;;;;;;;17.19;100.00;100835.28;690568;28;1271;-64
2023/07/17 01:16:58;;;;;;;5.53;2.67;;;;;;;17.18;100.00;100838.84;689735;28;1654;-63
2023/07/17 01:17:18;;;;;;;5.73;2.60;;;;;;;17.22;100.00;100836.97;689423;28;1539;-63
2023/07/17 01:17:39;;;;;;;5.38;2.60;;;;;;;17.23;100.00;100837.84;687181;28;1234;-64
2023/07/17 01:18:00;;;;;;;5.82;2.47;;;;;;;17.21;100.00;100835.25;687468;28;821;-64
2023/07/17 01:18:21;;;;;;;5.97;2.65;;;;;;;17.23;100.00;100843.16;686960;28;2161;-64
2023/07/17 01:18:42;;;;;;;4.95;2.47;;;;;;;17.22;100.00;100839.63;686776;28;4460;-64
2023/07/17 01:19:03;;;;;;;5.32;2.45;;;;;;;17.24;100.00;100839.56;686237;28;1142;-64
2023/07/17 01:19:23;;;;;;;5.27;2.50;;;;;;;17.31;100.00;100842.00;686442;28;1942;-64
2023/07/17 01:19:43;;;;;;;5.20;2.43;;;;;;;17.34;100.00;100836.59;687305;28;1149;-64
2023/07/17 01:20:05;;;;;;;5.10;2.45;;;;;;;17.32;100.00;100837.56;686125;28;868;-64
2023/07/17 01:20:25;;;;;;;5.63;2.70;;;;;;;17.26;100.00;100835.13;684453;28;1490;-63
2023/07/17 01:20:47;;;;;;;6.93;3.17;;;;;;;17.25;100.00;100838.66;687371;28;991;-64
2023/07/17 01:21:08;;;;;;;6.15;3.10;;;;;;;17.29;100.00;100837.66;686534;28;1692;-64
2023/07/17 01:21:34;;;;;;;6.07;2.58;;;;;;;17.27;100.00;100840.34;685800;28;920;-64
2023/07/17 01:22:04;;;;;;;6.13;2.70;;;;;;;17.34;100.00;100835.75;684698;28;4473;-64
2023/07/17 01:22:31;;;;;;;5.78;2.47;;;;;;;17.29;100.00;100833.25;683211;28;2144;-64
2023/07/17 01:23:00;;;;;;;4.97;2.55;;;;;;;17.32;100.00;100834.91;682702;29;931;-64
2023/07/17 01:23:21;;;;;;;5.80;2.50;;;;;;;17.26;100.00;100837.75;682117;28;1599;-64
2023/07/17 01:23:41;;;;;;;5.73;2.57;;;;;;;17.24;100.00;100836.91;682931;28;869;-64
2023/07/17 01:24:02;;;;;;;5.60;2.72;;;;;;;17.23;100.00;100840.50;684274;28;1023;-64
2023/07/17 01:24:22;;;;;;;5.10;2.60;;;;;;;17.28;100.00;100836.81;685325;28;1224;-64
2023/07/17 01:24:44;;;;;;;4.22;2.22;;;;;;;17.35;100.00;100838.34;688385;28;4335;-64
2023/07/17 01:25:06;;;;;;;4.63;2.20;;;;;;;17.42;100.00;100832.84;689744;28;899;-64
2023/07/17 01:25:26;;;;;;;5.60;2.50;;;;;;;17.43;100.00;100834.59;689414;28;897;-64
2023/07/17 01:25:47;;;;;;;4.43;2.37;;;;;;;17.41;100.00;100831.16;692299;28;1236;-63
2023/07/17 01:26:15;;;;;;;4.00;2.15;;;;;;;17.38;100.00;100834.75;689767;28;1531;-64
2023/07/17 01:26:35;;;;;;;5.45;2.60;;;;;;;17.35;100.00;100824.28;689353;28;880;-64
2023/07/17 01:26:56;;;;;;;4.87;2.30;;;;;;;17.31;100.00;100826.13;690714;28;896;-64
2023/07/17 01:27:17;;;;;;;4.60;2.35;;;;;;;17.30;100.00;100834.97;687325;28;1454;-64
2023/07/17 01:27:38;;;;;;;4.53;2.22;;;;;;;17.29;100.00;100827.97;687171;28;1424;-64
2023/07/17 01:27:59;;;;;;;4.97;2.33;;;;;;;17.36;100.00;100824.22;687280;28;4279;-64
2023/07/17 01:28:19;;;;;;;5.33;2.10;;;;;;;17.35;100.00;100826.94;687061;28;1544;-64
2023/07/17 01:28:39;;;;;;;5.27;2.33;;;;;;;17.28;100.00;100835.91;687331;28;999;-64
2023/07/17 01:29:02;;;;;;;4.88;2.25;;;;;;;17.31;100.00;100826.13;687908;28;1337;-64
2023/07/17 01:29:24;;;;;;;4.63;2.10;;;;;;;17.19;100.00;100837.94;686746;28;1628;-63
2023/07/17 01:29:46;;;;;;;4.95;1.90;;;;;;;17.18;100.00;100830.06;687013;28;985;-63
2023/07/17 01:30:07;;;;;;;4.78;1.98;;;;;;;17.24;100.00;100834.28;687590;28;1520;-63
2023/07/17 01:30:28;;;;;;;4.45;1.92;;;;;;;17.22;100.00;100830.84;688827;28;1420;-63
2023/07/17 01:30:50;;;;;;;4.85;2.20;;;;;;;17.30;100.00;100821.75;686703;28;4625;-65
2023/07/17 01:31:12;;;;;;;4.43;2.08;;;;;;;17.28;100.00;100831.53;686962;28;1410;-65
2023/07/17 01:31:34;;;;;;;4.93;2.15;;;;;;;17.22;100.00;100831.69;687763;28;897;-64
2023/07/17 01:31:55;;;;;;;4.47;2.00;;;;;;;17.22;100.00;100830.84;683717;28;1229;-61
2023/07/17 01:32:15;;;;;;;4.67;2.00;;;;;;;17.18;100.00;100830.94;682226;28;2512;-64
2023/07/17 01:32:36;;;;;;;4.97;2.00;;;;;;;17.14;100.00;100833.69;683740;28;1012;-64
2023/07/17 01:32:58;;;;;;;4.78;1.90;;;;;;;17.10;100.00;100837.34;686268;28;1294;-64
2023/07/17 01:33:18;;;;;;;4.77;2.07;;;;;;;17.08;100.00;100823.31;685946;28;1476;-64
2023/07/17 01:33:39;;;;;;;5.00;2.30;;;;;;;17.06;100.00;100827.75;686692;28;940;-64
2023/07/17 01:33:59;;;;;;;4.77;2.13;;;;;;;17.06;100.00;100833.03;689524;28;4369;-64
2023/07/17 01:34:19;;;;;;;4.33;2.03;;;;;;;17.05;100.00;100832.19;686356;28;1480;-65
2023/07/17 01:34:41;;;;;;;4.73;2.10;;;;;;;17.13;100.00;100827.56;687939;28;930;-65
2023/07/17 01:35:02;;;;;;;4.82;2.20;;;;;;;17.12;100.00;100822.31;687334;28;1182;-64
2023/07/17 01:35:23;;;;;;;4.40;2.17;;;;;;;17.08;100.00;100826.81;683960;28;2071;-64
2023/07/17 01:35:44;;;;;;;4.43;2.13;;;;;;;17.06;100.00;100825.13;684963;28;944;-64
2023/07/17 01:36:06;;;;;;;5.43;2.10;;;;;;;17.05;100.00;100821.63;685250;28;1194;-64
2023/07/17 01:36:27;;;;;;;5.20;2.08;;;;;;;17.08;100.00;100813.59;685370;28;1814;-64
2023/07/17 01:36:47;;;;;;;4.70;2.37;;;;;;;17.05;100.00;100819.00;686756;28;4372;-64
2023/07/17 01:37:10;;;;;;;5.43;2.17;;;;;;;17.08;100.00;100825.97;687983;28;1564;-64
2023/07/17 01:37:31;;;;;;;5.05;2.10;;;;;;;17.07;100.00;100821.59;690489;28;1347;-64
2023/07/17 01:37:51;;;;;;;4.77;2.17;;;;;;;17.04;100.00;100826.97;690279;28;817;-64
2023/07/17 01:38:11;;;;;;;4.22;2.10;;;;;;;17.00;100.00;100823.53;689088;28;1431;-64
2023/07/17 01:38:33;;;;;;;4.87;2.20;;;;;;;17.01;100.00;100822.63;690183;28;1482;-64
2023/07/17 01:38:54;;;;;;;4.68;2.00;;;;;;;16.98;100.00;100828.00;685009;28;5569;-64
2023/07/17 01:39:14;;;;;;;5.50;2.20;;;;;;;16.94;100.00;100823.72;683590;28;1539;-64
2023/07/17 01:39:35;;;;;;;4.70;2.30;;;;;;;16.90;100.00;100825.56;685077;28;1961;-64
2023/07/17 01:39:56;;;;;;;4.88;2.20;;;;;;;16.92;100.00;100828.16;681794;28;4327;-64
2023/07/17 01:40:17;;;;;;;5.57;2.60;;;;;;;16.89;100.00;100825.63;681402;28;1552;-64
2023/07/17 01:40:37;;;;;;;5.88;2.45;;;;;;;16.87;100.00;100828.28;682745;28;960;-64